sensor_id;sensor_type;location;lat;lon;timestamp;temperature;humidity
21163;DHT22;10739;52.198;20.908;2023-05-10T00:00:17;8.90;82.40
21163;DHT22;10739;52.198;20.908;2023-05-10T00:02:44;8.80;82.30
21163;DHT22;10739;52.198;20.908;2023-05-10T00:05:10;8.80;82.40
21163;DHT22;10739;52.198;20.908;2023-05-10T00:07:36;8.80;82.70
21163;DHT22;10739;52.198;20.908;2023-05-10T00:10:03;8.70;83.10
21163;DHT22;10739;52.198;20.908;2023-05-10T00:12:29;8.70;83.50
21163;DHT22;10739;52.198;20.908;2023-05-10T00:14:56;8.70;83.20
21163;DHT22;10739;52.198;20.908;2023-05-10T00:17:22;8.70;83.80
21163;DHT22;10739;52.198;20.908;2023-05-10T00:19:48;8.70;83.80
21163;DHT22;10739;52.198;20.908;2023-05-10T00:22:15;8.60;84.60
21163;DHT22;10739;52.198;20.908;2023-05-10T00:24:41;8.50;85.10
21163;DHT22;10739;52.198;20.908;2023-05-10T00:27:07;8.60;84.70
21163;DHT22;10739;52.198;20.908;2023-05-10T00:29:34;8.50;85.00
21163;DHT22;10739;52.198;20.908;2023-05-10T00:32:00;8.50;84.50
21163;DHT22;10739;52.198;20.908;2023-05-10T00:34:26;8.50;84.50
21163;DHT22;10739;52.198;20.908;2023-05-10T00:36:53;8.50;84.90
21163;DHT22;10739;52.198;20.908;2023-05-10T00:39:19;8.50;84.80
21163;DHT22;10739;52.198;20.908;2023-05-10T00:41:45;8.50;84.60
21163;DHT22;10739;52.198;20.908;2023-05-10T00:44:12;8.50;85.30
21163;DHT22;10739;52.198;20.908;2023-05-10T00:46:38;8.40;84.60
21163;DHT22;10739;52.198;20.908;2023-05-10T00:49:04;8.50;84.70
21163;DHT22;10739;52.198;20.908;2023-05-10T00:51:31;8.50;84.30
21163;DHT22;10739;52.198;20.908;2023-05-10T00:53:58;8.40;84.90
21163;DHT22;10739;52.198;20.908;2023-05-10T00:56:25;8.40;84.70
21163;DHT22;10739;52.198;20.908;2023-05-10T00:58:54;8.40;85.20
21163;DHT22;10739;52.198;20.908;2023-05-10T01:01:20;8.40;85.00
21163;DHT22;10739;52.198;20.908;2023-05-10T01:03:47;8.30;84.60
21163;DHT22;10739;52.198;20.908;2023-05-10T01:06:14;8.30;85.60
21163;DHT22;10739;52.198;20.908;2023-05-10T01:08:40;8.30;85.20
21163;DHT22;10739;52.198;20.908;2023-05-10T01:11:07;8.20;85.50
21163;DHT22;10739;52.198;20.908;2023-05-10T01:13:38;8.20;85.90
21163;DHT22;10739;52.198;20.908;2023-05-10T01:16:06;8.20;85.80
21163;DHT22;10739;52.198;20.908;2023-05-10T01:18:36;8.10;86.40
21163;DHT22;10739;52.198;20.908;2023-05-10T01:21:27;8.10;86.20
21163;DHT22;10739;52.198;20.908;2023-05-10T01:39:07;7.80;89.10
21163;DHT22;10739;52.198;20.908;2023-05-10T01:42:10;7.80;88.90
21163;DHT22;10739;52.198;20.908;2023-05-10T01:44:49;7.70;90.10
21163;DHT22;10739;52.198;20.908;2023-05-10T01:50:02;7.70;89.10
21163;DHT22;10739;52.198;20.908;2023-05-10T01:52:36;7.70;89.30
21163;DHT22;10739;52.198;20.908;2023-05-10T01:55:09;7.70;89.90
21163;DHT22;10739;52.198;20.908;2023-05-10T01:57:44;7.70;89.80
21163;DHT22;10739;52.198;20.908;2023-05-10T02:00:14;7.70;89.30
21163;DHT22;10739;52.198;20.908;2023-05-10T02:02:48;7.60;90.00
21163;DHT22;10739;52.198;20.908;2023-05-10T02:05:16;7.60;90.30
21163;DHT22;10739;52.198;20.908;2023-05-10T02:07:43;7.60;90.10
21163;DHT22;10739;52.198;20.908;2023-05-10T02:10:11;7.50;90.30
21163;DHT22;10739;52.198;20.908;2023-05-10T02:12:44;7.50;90.70
21163;DHT22;10739;52.198;20.908;2023-05-10T02:15:17;7.40;90.70
21163;DHT22;10739;52.198;20.908;2023-05-10T02:17:47;7.40;91.10
21163;DHT22;10739;52.198;20.908;2023-05-10T02:20:16;7.30;91.00
21163;DHT22;10739;52.198;20.908;2023-05-10T02:22:47;7.30;91.30
21163;DHT22;10739;52.198;20.908;2023-05-10T02:25:19;7.30;91.30
21163;DHT22;10739;52.198;20.908;2023-05-10T02:27:48;7.20;92.20
21163;DHT22;10739;52.198;20.908;2023-05-10T02:30:18;7.20;92.30
21163;DHT22;10739;52.198;20.908;2023-05-10T02:32:45;7.20;92.50
21163;DHT22;10739;52.198;20.908;2023-05-10T02:35:13;7.10;92.60
21163;DHT22;10739;52.198;20.908;2023-05-10T02:37:41;7.10;92.50
21163;DHT22;10739;52.198;20.908;2023-05-10T02:40:10;7.00;92.90
21163;DHT22;10739;52.198;20.908;2023-05-10T02:42:38;6.90;93.30
21163;DHT22;10739;52.198;20.908;2023-05-10T02:45:11;6.90;93.30
21163;DHT22;10739;52.198;20.908;2023-05-10T02:47:40;6.90;93.40
21163;DHT22;10739;52.198;20.908;2023-05-10T02:50:07;6.90;93.40
21163;DHT22;10739;52.198;20.908;2023-05-10T02:52:47;6.90;93.50
21163;DHT22;10739;52.198;20.908;2023-05-10T02:55:21;6.90;93.90
21163;DHT22;10739;52.198;20.908;2023-05-10T02:57:58;6.90;94.00
21163;DHT22;10739;52.198;20.908;2023-05-10T03:00:26;6.80;94.30
21163;DHT22;10739;52.198;20.908;2023-05-10T03:02:53;6.80;94.20
21163;DHT22;10739;52.198;20.908;2023-05-10T03:05:19;6.80;94.70
21163;DHT22;10739;52.198;20.908;2023-05-10T03:07:46;6.80;94.60
21163;DHT22;10739;52.198;20.908;2023-05-10T03:10:13;6.80;94.90
21163;DHT22;10739;52.198;20.908;2023-05-10T03:13:33;6.80;94.90
21163;DHT22;10739;52.198;20.908;2023-05-10T03:16:03;6.80;94.70
21163;DHT22;10739;52.198;20.908;2023-05-10T03:18:44;6.90;95.00
21163;DHT22;10739;52.198;20.908;2023-05-10T03:21:18;6.90;94.60
21163;DHT22;10739;52.198;20.908;2023-05-10T03:23:51;6.90;94.70
21163;DHT22;10739;52.198;20.908;2023-05-10T03:26:26;6.90;94.80
21163;DHT22;10739;52.198;20.908;2023-05-10T03:28:55;6.90;95.60
21163;DHT22;10739;52.198;20.908;2023-05-10T03:31:21;6.80;95.40
21163;DHT22;10739;52.198;20.908;2023-05-10T03:33:49;6.80;95.60
21163;DHT22;10739;52.198;20.908;2023-05-10T03:36:16;6.80;95.50
21163;DHT22;10739;52.198;20.908;2023-05-10T03:38:43;6.80;95.70
21163;DHT22;10739;52.198;20.908;2023-05-10T03:41:09;6.90;95.50
21163;DHT22;10739;52.198;20.908;2023-05-10T03:43:35;6.90;96.20
21163;DHT22;10739;52.198;20.908;2023-05-10T03:46:03;6.90;95.80
21163;DHT22;10739;52.198;20.908;2023-05-10T03:48:31;6.90;95.70
21163;DHT22;10739;52.198;20.908;2023-05-10T03:50:58;7.00;95.60
21163;DHT22;10739;52.198;20.908;2023-05-10T03:53:24;7.00;95.60
21163;DHT22;10739;52.198;20.908;2023-05-10T03:55:51;7.00;95.80
21163;DHT22;10739;52.198;20.908;2023-05-10T03:58:17;7.00;96.00
21163;DHT22;10739;52.198;20.908;2023-05-10T04:00:44;7.00;95.90
21163;DHT22;10739;52.198;20.908;2023-05-10T04:03:11;7.10;95.60
21163;DHT22;10739;52.198;20.908;2023-05-10T04:05:38;7.10;96.50
21163;DHT22;10739;52.198;20.908;2023-05-10T04:08:05;7.20;95.60
21163;DHT22;10739;52.198;20.908;2023-05-10T04:10:31;7.30;95.30
21163;DHT22;10739;52.198;20.908;2023-05-10T04:12:58;7.40;95.50
21163;DHT22;10739;52.198;20.908;2023-05-10T04:15:24;7.40;95.10
21163;DHT22;10739;52.198;20.908;2023-05-10T04:17:50;7.50;95.10
21163;DHT22;10739;52.198;20.908;2023-05-10T04:20:17;7.50;95.10
21163;DHT22;10739;52.198;20.908;2023-05-10T04:22:43;7.50;95.10
21163;DHT22;10739;52.198;20.908;2023-05-10T04:25:09;7.60;95.80
21163;DHT22;10739;52.198;20.908;2023-05-10T04:27:36;7.60;94.70
21163;DHT22;10739;52.198;20.908;2023-05-10T04:30:02;7.70;95.00
21163;DHT22;10739;52.198;20.908;2023-05-10T04:32:29;7.70;94.70
21163;DHT22;10739;52.198;20.908;2023-05-10T04:34:55;7.80;94.70
21163;DHT22;10739;52.198;20.908;2023-05-10T04:37:21;7.80;94.40
21163;DHT22;10739;52.198;20.908;2023-05-10T04:39:48;7.90;94.30
21163;DHT22;10739;52.198;20.908;2023-05-10T04:42:14;7.90;94.60
21163;DHT22;10739;52.198;20.908;2023-05-10T04:44:41;7.90;94.40
21163;DHT22;10739;52.198;20.908;2023-05-10T04:47:09;8.10;94.00
21163;DHT22;10739;52.198;20.908;2023-05-10T04:49:35;8.10;94.30
21163;DHT22;10739;52.198;20.908;2023-05-10T04:52:01;8.20;94.00
21163;DHT22;10739;52.198;20.908;2023-05-10T04:54:27;8.20;94.10
21163;DHT22;10739;52.198;20.908;2023-05-10T04:56:54;8.30;93.90
21163;DHT22;10739;52.198;20.908;2023-05-10T04:59:20;8.40;93.20
21163;DHT22;10739;52.198;20.908;2023-05-10T05:01:46;7.80;93.60
21163;DHT22;10739;52.198;20.908;2023-05-10T05:04:13;8.60;93.10
21163;DHT22;10739;52.198;20.908;2023-05-10T05:06:40;8.60;93.30
21163;DHT22;10739;52.198;20.908;2023-05-10T05:09:06;8.70;93.30
21163;DHT22;10739;52.198;20.908;2023-05-10T05:11:33;8.80;93.40
21163;DHT22;10739;52.198;20.908;2023-05-10T05:13:59;8.90;92.90
21163;DHT22;10739;52.198;20.908;2023-05-10T05:16:25;8.90;92.50
21163;DHT22;10739;52.198;20.908;2023-05-10T05:18:52;9.00;92.00
21163;DHT22;10739;52.198;20.908;2023-05-10T05:21:19;9.00;92.70
21163;DHT22;10739;52.198;20.908;2023-05-10T05:23:46;9.10;92.50
21163;DHT22;10739;52.198;20.908;2023-05-10T05:26:12;9.20;92.40
21163;DHT22;10739;52.198;20.908;2023-05-10T05:28:38;9.30;92.30
21163;DHT22;10739;52.198;20.908;2023-05-10T05:31:06;9.40;92.20
21163;DHT22;10739;52.198;20.908;2023-05-10T05:33:36;9.50;92.10
21163;DHT22;10739;52.198;20.908;2023-05-10T05:36:04;9.60;91.90
21163;DHT22;10739;52.198;20.908;2023-05-10T05:38:31;9.70;91.90
21163;DHT22;10739;52.198;20.908;2023-05-10T05:40:57;9.80;91.40
21163;DHT22;10739;52.198;20.908;2023-05-10T05:43:24;9.90;91.80
21163;DHT22;10739;52.198;20.908;2023-05-10T05:45:52;10.00;91.50
21163;DHT22;10739;52.198;20.908;2023-05-10T05:48:19;10.10;91.50
21163;DHT22;10739;52.198;20.908;2023-05-10T05:50:46;10.20;91.20
21163;DHT22;10739;52.198;20.908;2023-05-10T05:53:13;10.40;91.10
21163;DHT22;10739;52.198;20.908;2023-05-10T05:55:39;10.50;90.40
21163;DHT22;10739;52.198;20.908;2023-05-10T05:58:26;10.60;90.80
21163;DHT22;10739;52.198;20.908;2023-05-10T06:00:53;10.80;90.70
21163;DHT22;10739;52.198;20.908;2023-05-10T06:03:20;10.90;89.10
21163;DHT22;10739;52.198;20.908;2023-05-10T06:05:58;11.00;90.10
21163;DHT22;10739;52.198;20.908;2023-05-10T06:08:25;11.10;88.60
21163;DHT22;10739;52.198;20.908;2023-05-10T06:10:51;11.30;88.30
21163;DHT22;10739;52.198;20.908;2023-05-10T06:13:59;11.40;87.40
21163;DHT22;10739;52.198;20.908;2023-05-10T06:16:28;11.50;86.00
21163;DHT22;10739;52.198;20.908;2023-05-10T06:21:41;11.60;86.60
21163;DHT22;10739;52.198;20.908;2023-05-10T06:24:07;11.80;87.70
21163;DHT22;10739;52.198;20.908;2023-05-10T06:26:33;11.90;84.80
21163;DHT22;10739;52.198;20.908;2023-05-10T06:29:00;12.00;83.90
21163;DHT22;10739;52.198;20.908;2023-05-10T06:31:26;12.10;84.90
21163;DHT22;10739;52.198;20.908;2023-05-10T06:33:53;12.20;85.60
21163;DHT22;10739;52.198;20.908;2023-05-10T06:36:19;12.40;83.80
21163;DHT22;10739;52.198;20.908;2023-05-10T06:38:45;12.50;83.20
21163;DHT22;10739;52.198;20.908;2023-05-10T06:41:11;12.50;81.70
21163;DHT22;10739;52.198;20.908;2023-05-10T06:43:38;12.60;82.00
21163;DHT22;10739;52.198;20.908;2023-05-10T06:46:07;12.70;81.80
21163;DHT22;10739;52.198;20.908;2023-05-10T06:48:33;12.80;80.70
21163;DHT22;10739;52.198;20.908;2023-05-10T06:51:00;12.90;81.20
21163;DHT22;10739;52.198;20.908;2023-05-10T06:53:26;13.10;78.60
21163;DHT22;10739;52.198;20.908;2023-05-10T06:55:53;13.10;77.70
21163;DHT22;10739;52.198;20.908;2023-05-10T06:58:19;13.20;77.80
21163;DHT22;10739;52.198;20.908;2023-05-10T07:00:45;13.40;79.10
21163;DHT22;10739;52.198;20.908;2023-05-10T07:03:13;13.50;77.60
21163;DHT22;10739;52.198;20.908;2023-05-10T07:05:39;13.70;77.20
21163;DHT22;10739;52.198;20.908;2023-05-10T07:08:05;13.60;73.90
21163;DHT22;10739;52.198;20.908;2023-05-10T07:10:33;13.70;72.80
21163;DHT22;10739;52.198;20.908;2023-05-10T07:12:59;13.90;73.00
21163;DHT22;10739;52.198;20.908;2023-05-10T07:15:26;14.00;73.40
21163;DHT22;10739;52.198;20.908;2023-05-10T07:17:53;14.20;71.30
21163;DHT22;10739;52.198;20.908;2023-05-10T07:20:20;14.30;70.20
21163;DHT22;10739;52.198;20.908;2023-05-10T07:22:46;14.40;70.80
21163;DHT22;10739;52.198;20.908;2023-05-10T07:25:12;14.30;68.60
21163;DHT22;10739;52.198;20.908;2023-05-10T07:27:38;14.40;67.40
21163;DHT22;10739;52.198;20.908;2023-05-10T07:30:05;14.50;65.60
21163;DHT22;10739;52.198;20.908;2023-05-10T07:32:32;14.60;64.30
21163;DHT22;10739;52.198;20.908;2023-05-10T07:34:58;14.90;63.30
21163;DHT22;10739;52.198;20.908;2023-05-10T07:37:25;15.00;61.00
21163;DHT22;10739;52.198;20.908;2023-05-10T07:39:51;15.10;60.80
21163;DHT22;10739;52.198;20.908;2023-05-10T07:42:17;15.10;60.10
21163;DHT22;10739;52.198;20.908;2023-05-10T07:44:43;15.20;58.20
21163;DHT22;10739;52.198;20.908;2023-05-10T07:47:11;15.50;55.60
21163;DHT22;10739;52.198;20.908;2023-05-10T07:49:37;15.50;57.50
21163;DHT22;10739;52.198;20.908;2023-05-10T07:52:04;15.60;56.20
21163;DHT22;10739;52.198;20.908;2023-05-10T07:54:30;15.90;56.70
21163;DHT22;10739;52.198;20.908;2023-05-10T07:56:56;15.80;54.10
21163;DHT22;10739;52.198;20.908;2023-05-10T07:59:23;15.80;54.70
21163;DHT22;10739;52.198;20.908;2023-05-10T08:01:49;15.90;57.30
21163;DHT22;10739;52.198;20.908;2023-05-10T08:04:15;16.00;55.00
21163;DHT22;10739;52.198;20.908;2023-05-10T08:06:42;16.00;55.50
21163;DHT22;10739;52.198;20.908;2023-05-10T08:09:08;15.90;52.70
21163;DHT22;10739;52.198;20.908;2023-05-10T08:11:35;15.90;54.60
21163;DHT22;10739;52.198;20.908;2023-05-10T08:14:01;16.00;53.30
21163;DHT22;10739;52.198;20.908;2023-05-10T08:16:27;16.30;53.40
21163;DHT22;10739;52.198;20.908;2023-05-10T08:18:54;16.00;51.70
21163;DHT22;10739;52.198;20.908;2023-05-10T08:21:21;16.10;51.40
21163;DHT22;10739;52.198;20.908;2023-05-10T08:23:47;16.10;51.10
21163;DHT22;10739;52.198;20.908;2023-05-10T08:26:14;16.30;51.20
21163;DHT22;10739;52.198;20.908;2023-05-10T08:28:41;16.40;50.80
21163;DHT22;10739;52.198;20.908;2023-05-10T08:31:07;16.60;50.30
21163;DHT22;10739;52.198;20.908;2023-05-10T08:33:33;16.70;50.00
21163;DHT22;10739;52.198;20.908;2023-05-10T08:35:59;16.80;50.70
21163;DHT22;10739;52.198;20.908;2023-05-10T08:38:26;16.60;49.80
21163;DHT22;10739;52.198;20.908;2023-05-10T08:40:54;16.60;50.60
21163;DHT22;10739;52.198;20.908;2023-05-10T08:43:25;16.90;52.20
21163;DHT22;10739;52.198;20.908;2023-05-10T08:45:54;17.40;51.80
21163;DHT22;10739;52.198;20.908;2023-05-10T08:48:24;17.40;49.50
21163;DHT22;10739;52.198;20.908;2023-05-10T08:50:53;17.20;50.40
21163;DHT22;10739;52.198;20.908;2023-05-10T08:53:21;17.20;49.70
21163;DHT22;10739;52.198;20.908;2023-05-10T08:55:51;17.20;50.10
21163;DHT22;10739;52.198;20.908;2023-05-10T08:58:19;17.20;49.50
21163;DHT22;10739;52.198;20.908;2023-05-10T09:00:46;17.50;49.10
21163;DHT22;10739;52.198;20.908;2023-05-10T09:03:15;17.70;48.70
21163;DHT22;10739;52.198;20.908;2023-05-10T09:05:42;18.00;48.80
21163;DHT22;10739;52.198;20.908;2023-05-10T09:08:11;17.90;47.40
21163;DHT22;10739;52.198;20.908;2023-05-10T09:10:39;17.90;47.20
21163;DHT22;10739;52.198;20.908;2023-05-10T09:13:15;18.10;46.70
21163;DHT22;10739;52.198;20.908;2023-05-10T09:15:44;18.20;47.10
21163;DHT22;10739;52.198;20.908;2023-05-10T09:18:12;18.40;47.60
21163;DHT22;10739;52.198;20.908;2023-05-10T09:20:38;18.40;46.90
21163;DHT22;10739;52.198;20.908;2023-05-10T09:23:05;18.30;45.70
21163;DHT22;10739;52.198;20.908;2023-05-10T09:25:31;18.40;45.30
21163;DHT22;10739;52.198;20.908;2023-05-10T09:27:59;18.50;45.60
21163;DHT22;10739;52.198;20.908;2023-05-10T09:30:27;18.70;45.00
21163;DHT22;10739;52.198;20.908;2023-05-10T09:32:55;18.90;46.30
21163;DHT22;10739;52.198;20.908;2023-05-10T09:35:28;18.90;45.60
21163;DHT22;10739;52.198;20.908;2023-05-10T09:38:00;19.00;46.60
21163;DHT22;10739;52.198;20.908;2023-05-10T09:40:30;18.90;45.50
21163;DHT22;10739;52.198;20.908;2023-05-10T09:43:06;19.50;45.60
21163;DHT22;10739;52.198;20.908;2023-05-10T09:45:34;19.80;45.60
21163;DHT22;10739;52.198;20.908;2023-05-10T09:48:02;19.70;46.50
21163;DHT22;10739;52.198;20.908;2023-05-10T09:50:30;19.90;45.80
21163;DHT22;10739;52.198;20.908;2023-05-10T09:52:58;19.50;45.00
21163;DHT22;10739;52.198;20.908;2023-05-10T09:58:05;19.70;44.90
21163;DHT22;10739;52.198;20.908;2023-05-10T10:00:43;20.30;45.00
21163;DHT22;10739;52.198;20.908;2023-05-10T10:03:26;20.20;43.70
21163;DHT22;10739;52.198;20.908;2023-05-10T10:06:04;20.50;45.90
21163;DHT22;10739;52.198;20.908;2023-05-10T10:08:33;21.20;44.20
21163;DHT22;10739;52.198;20.908;2023-05-10T10:11:00;21.00;44.40
21163;DHT22;10739;52.198;20.908;2023-05-10T10:13:27;20.70;43.30
21163;DHT22;10739;52.198;20.908;2023-05-10T10:15:54;20.90;43.60
21163;DHT22;10739;52.198;20.908;2023-05-10T10:18:21;20.90;43.20
21163;DHT22;10739;52.198;20.908;2023-05-10T10:20:54;20.70;41.90
21163;DHT22;10739;52.198;20.908;2023-05-10T10:23:21;20.40;42.30
21163;DHT22;10739;52.198;20.908;2023-05-10T10:25:49;21.00;42.20
21163;DHT22;10739;52.198;20.908;2023-05-10T10:28:31;21.20;42.40
21163;DHT22;10739;52.198;20.908;2023-05-10T10:34:25;21.90;42.30
21163;DHT22;10739;52.198;20.908;2023-05-10T10:36:56;21.30;41.80
21163;DHT22;10739;52.198;20.908;2023-05-10T10:39:24;21.60;43.90
21163;DHT22;10739;52.198;20.908;2023-05-10T10:41:55;22.50;41.00
21163;DHT22;10739;52.198;20.908;2023-05-10T10:55:15;21.20;40.40
21163;DHT22;10739;52.198;20.908;2023-05-10T11:00:29;21.20;41.40
21163;DHT22;10739;52.198;20.908;2023-05-10T11:03:04;21.40;40.50
21163;DHT22;10739;52.198;20.908;2023-05-10T11:05:48;21.60;40.70
21163;DHT22;10739;52.198;20.908;2023-05-10T11:11:05;22.10;41.20
21163;DHT22;10739;52.198;20.908;2023-05-10T11:16:20;22.00;41.30
21163;DHT22;10739;52.198;20.908;2023-05-10T11:21:24;22.70;40.60
21163;DHT22;10739;52.198;20.908;2023-05-10T11:23:56;22.30;39.80
21163;DHT22;10739;52.198;20.908;2023-05-10T11:26:27;22.00;39.30
21163;DHT22;10739;52.198;20.908;2023-05-10T11:28:57;22.50;41.70
21163;DHT22;10739;52.198;20.908;2023-05-10T11:31:26;22.60;40.30
21163;DHT22;10739;52.198;20.908;2023-05-10T11:33:54;22.50;40.10
21163;DHT22;10739;52.198;20.908;2023-05-10T11:36:25;22.10;40.60
21163;DHT22;10739;52.198;20.908;2023-05-10T11:38:53;22.90;39.90
21163;DHT22;10739;52.198;20.908;2023-05-10T11:41:22;23.20;40.30
21163;DHT22;10739;52.198;20.908;2023-05-10T11:43:51;22.90;39.00
21163;DHT22;10739;52.198;20.908;2023-05-10T11:46:24;22.60;40.10
21163;DHT22;10739;52.198;20.908;2023-05-10T11:49:02;22.90;41.30
21163;DHT22;10739;52.198;20.908;2023-05-10T11:51:36;22.20;40.80
21163;DHT22;10739;52.198;20.908;2023-05-10T11:54:06;22.40;41.20
21163;DHT22;10739;52.198;20.908;2023-05-10T11:56:39;22.10;41.10
21163;DHT22;10739;52.198;20.908;2023-05-10T11:59:06;22.50;41.00
21163;DHT22;10739;52.198;20.908;2023-05-10T12:01:33;22.70;40.00
21163;DHT22;10739;52.198;20.908;2023-05-10T12:04:01;23.10;39.80
21163;DHT22;10739;52.198;20.908;2023-05-10T12:06:29;23.20;38.80
21163;DHT22;10739;52.198;20.908;2023-05-10T12:08:57;23.40;40.10
21163;DHT22;10739;52.198;20.908;2023-05-10T12:11:25;23.90;38.60
21163;DHT22;10739;52.198;20.908;2023-05-10T12:13:54;23.20;39.00
21163;DHT22;10739;52.198;20.908;2023-05-10T12:16:28;23.20;39.80
21163;DHT22;10739;52.198;20.908;2023-05-10T12:18:59;22.90;38.90
21163;DHT22;10739;52.198;20.908;2023-05-10T12:21:28;23.00;40.20
21163;DHT22;10739;52.198;20.908;2023-05-10T12:24:01;22.90;39.70
21163;DHT22;10739;52.198;20.908;2023-05-10T12:26:29;22.60;39.90
21163;DHT22;10739;52.198;20.908;2023-05-10T12:31:59;23.20;39.70
21163;DHT22;10739;52.198;20.908;2023-05-10T12:34:32;23.20;39.90
21163;DHT22;10739;52.198;20.908;2023-05-10T12:37:00;23.30;40.10
21163;DHT22;10739;52.198;20.908;2023-05-10T12:39:38;23.50;39.90
21163;DHT22;10739;52.198;20.908;2023-05-10T12:42:06;23.30;39.80
21163;DHT22;10739;52.198;20.908;2023-05-10T12:44:32;23.00;39.70
21163;DHT22;10739;52.198;20.908;2023-05-10T12:46:59;22.80;39.20
21163;DHT22;10739;52.198;20.908;2023-05-10T12:49:25;22.70;39.10
21163;DHT22;10739;52.198;20.908;2023-05-10T12:51:51;22.80;39.20
21163;DHT22;10739;52.198;20.908;2023-05-10T12:54:18;23.00;38.60
21163;DHT22;10739;52.198;20.908;2023-05-10T12:56:44;22.70;38.50
21163;DHT22;10739;52.198;20.908;2023-05-10T12:59:10;22.90;38.50
21163;DHT22;10739;52.198;20.908;2023-05-10T13:01:36;22.60;38.50
21163;DHT22;10739;52.198;20.908;2023-05-10T13:04:03;22.70;39.00
21163;DHT22;10739;52.198;20.908;2023-05-10T13:06:29;23.00;38.80
21163;DHT22;10739;52.198;20.908;2023-05-10T13:08:56;23.20;38.80
21163;DHT22;10739;52.198;20.908;2023-05-10T13:11:23;23.90;37.90
21163;DHT22;10739;52.198;20.908;2023-05-10T13:13:50;23.60;38.70
21163;DHT22;10739;52.198;20.908;2023-05-10T13:16:17;23.00;38.50
21163;DHT22;10739;52.198;20.908;2023-05-10T13:18:43;23.10;38.50
21163;DHT22;10739;52.198;20.908;2023-05-10T13:21:09;22.90;39.40
21163;DHT22;10739;52.198;20.908;2023-05-10T13:23:37;23.00;39.80
21163;DHT22;10739;52.198;20.908;2023-05-10T13:26:03;23.20;40.20
21163;DHT22;10739;52.198;20.908;2023-05-10T13:28:29;22.80;39.90
21163;DHT22;10739;52.198;20.908;2023-05-10T13:30:56;23.10;40.00
21163;DHT22;10739;52.198;20.908;2023-05-10T13:33:22;23.00;38.90
21163;DHT22;10739;52.198;20.908;2023-05-10T13:35:49;22.80;40.20
21163;DHT22;10739;52.198;20.908;2023-05-10T13:38:15;22.60;39.60
21163;DHT22;10739;52.198;20.908;2023-05-10T13:40:42;22.60;38.90
21163;DHT22;10739;52.198;20.908;2023-05-10T13:43:08;22.70;38.90
21163;DHT22;10739;52.198;20.908;2023-05-10T13:45:34;22.90;38.80
21163;DHT22;10739;52.198;20.908;2023-05-10T13:48:01;22.60;38.50
21163;DHT22;10739;52.198;20.908;2023-05-10T13:50:27;22.70;39.00
21163;DHT22;10739;52.198;20.908;2023-05-10T13:52:54;22.80;38.60
21163;DHT22;10739;52.198;20.908;2023-05-10T13:55:20;22.70;39.80
21163;DHT22;10739;52.198;20.908;2023-05-10T13:57:47;23.20;40.00
21163;DHT22;10739;52.198;20.908;2023-05-10T14:00:13;23.20;38.40
21163;DHT22;10739;52.198;20.908;2023-05-10T14:02:40;23.10;38.50
21163;DHT22;10739;52.198;20.908;2023-05-10T14:05:06;23.10;37.90
21163;DHT22;10739;52.198;20.908;2023-05-10T14:07:33;22.60;38.90
21163;DHT22;10739;52.198;20.908;2023-05-10T14:09:59;22.50;39.50
21163;DHT22;10739;52.198;20.908;2023-05-10T14:12:26;22.80;38.90
21163;DHT22;10739;52.198;20.908;2023-05-10T14:14:53;22.70;38.60
21163;DHT22;10739;52.198;20.908;2023-05-10T14:17:19;22.60;38.60
21163;DHT22;10739;52.198;20.908;2023-05-10T14:19:45;22.40;40.40
21163;DHT22;10739;52.198;20.908;2023-05-10T14:22:11;22.30;40.30
21163;DHT22;10739;52.198;20.908;2023-05-10T14:24:38;22.10;39.70
21163;DHT22;10739;52.198;20.908;2023-05-10T14:27:04;22.40;41.20
21163;DHT22;10739;52.198;20.908;2023-05-10T14:29:31;22.10;39.90
21163;DHT22;10739;52.198;20.908;2023-05-10T14:31:58;21.80;40.50
21163;DHT22;10739;52.198;20.908;2023-05-10T14:34:25;21.90;40.40
21163;DHT22;10739;52.198;20.908;2023-05-10T14:36:51;21.80;39.70
21163;DHT22;10739;52.198;20.908;2023-05-10T14:39:17;22.10;40.00
21163;DHT22;10739;52.198;20.908;2023-05-10T14:41:44;22.10;40.10
21163;DHT22;10739;52.198;20.908;2023-05-10T14:44:11;22.20;39.60
21163;DHT22;10739;52.198;20.908;2023-05-10T14:46:37;21.90;40.10
21163;DHT22;10739;52.198;20.908;2023-05-10T14:49:05;21.40;41.10
21163;DHT22;10739;52.198;20.908;2023-05-10T14:51:31;21.70;39.70
21163;DHT22;10739;52.198;20.908;2023-05-10T14:53:57;21.20;41.70
21163;DHT22;10739;52.198;20.908;2023-05-10T14:56:24;21.30;40.50
21163;DHT22;10739;52.198;20.908;2023-05-10T14:58:51;21.00;42.00
21163;DHT22;10739;52.198;20.908;2023-05-10T15:01:17;20.80;41.00
21163;DHT22;10739;52.198;20.908;2023-05-10T15:03:44;20.30;41.80
21163;DHT22;10739;52.198;20.908;2023-05-10T15:06:13;19.90;42.30
21163;DHT22;10739;52.198;20.908;2023-05-10T15:08:41;19.40;42.30
21163;DHT22;10739;52.198;20.908;2023-05-10T15:11:07;19.10;44.10
21163;DHT22;10739;52.198;20.908;2023-05-10T15:13:34;19.00;44.30
21163;DHT22;10739;52.198;20.908;2023-05-10T15:16:00;18.60;44.40
21163;DHT22;10739;52.198;20.908;2023-05-10T15:18:26;18.40;45.00
21163;DHT22;10739;52.198;20.908;2023-05-10T15:20:53;18.40;44.80
21163;DHT22;10739;52.198;20.908;2023-05-10T15:23:19;18.40;44.80
21163;DHT22;10739;52.198;20.908;2023-05-10T15:25:45;18.20;45.00
21163;DHT22;10739;52.198;20.908;2023-05-10T15:28:11;18.20;45.30
21163;DHT22;10739;52.198;20.908;2023-05-10T15:30:37;18.00;45.40
21163;DHT22;10739;52.198;20.908;2023-05-10T15:33:04;18.10;46.30
21163;DHT22;10739;52.198;20.908;2023-05-10T15:35:30;18.00;45.90
21163;DHT22;10739;52.198;20.908;2023-05-10T15:37:57;17.80;46.10
21163;DHT22;10739;52.198;20.908;2023-05-10T15:40:23;17.70;46.60
21163;DHT22;10739;52.198;20.908;2023-05-10T15:42:49;17.60;46.20
21163;DHT22;10739;52.198;20.908;2023-05-10T15:45:16;17.60;46.40
21163;DHT22;10739;52.198;20.908;2023-05-10T15:47:42;17.70;46.90
21163;DHT22;10739;52.198;20.908;2023-05-10T15:50:10;17.60;45.90
21163;DHT22;10739;52.198;20.908;2023-05-10T15:52:37;17.60;46.60
21163;DHT22;10739;52.198;20.908;2023-05-10T15:55:03;17.60;45.90
21163;DHT22;10739;52.198;20.908;2023-05-10T15:57:40;17.70;45.90
21163;DHT22;10739;52.198;20.908;2023-05-10T16:00:09;17.50;45.50
21163;DHT22;10739;52.198;20.908;2023-05-10T16:02:36;17.50;45.70
21163;DHT22;10739;52.198;20.908;2023-05-10T16:05:03;17.40;45.30
21163;DHT22;10739;52.198;20.908;2023-05-10T16:07:29;17.30;45.30
21163;DHT22;10739;52.198;20.908;2023-05-10T16:09:56;17.20;45.30
21163;DHT22;10739;52.198;20.908;2023-05-10T16:12:22;17.20;44.60
21163;DHT22;10739;52.198;20.908;2023-05-10T16:14:48;17.10;45.90
21163;DHT22;10739;52.198;20.908;2023-05-10T16:17:15;17.10;45.30